createdAt,value
2017-04-26T00:01:24.669Z,58.4
2017-04-26T00:03:48.152Z,61.04
2017-04-26T00:06:11.277Z,61.9
2017-04-26T00:08:34.779Z,61.22
2017-04-26T00:11:00.247Z,61.96
2017-04-26T00:13:23.861Z,63.1
2017-04-26T00:15:47.113Z,63.01
2017-04-26T00:18:17.992Z,61.13
2017-04-26T00:20:48.951Z,61.04
2017-04-26T00:23:12.432Z,61.04
2017-04-26T00:25:37.855Z,60.66
2017-04-26T00:28:17.915Z,60.75
2017-04-26T00:30:50.001Z,60.56
2017-04-26T00:33:20.871Z,60.4
2017-04-26T00:35:44.229Z,60.4
2017-04-26T00:39:43.428Z,61.54
2017-04-26T00:43:42.889Z,60.59
2017-04-26T00:45:52.959Z,60.4
2017-04-26T00:48:17.334Z,60.97
2017-04-26T00:50:41.676Z,61.16
2017-04-26T00:53:04.925Z,61.16
2017-04-26T00:57:03.782Z,61.7
2017-04-26T00:59:34.655Z,62.18
2017-04-26T01:02:00.027Z,61.8
2017-04-26T01:04:31.258Z,62.08
2017-04-26T01:06:55.506Z,61.25
2017-04-26T01:09:25.808Z,61.25
2017-04-26T01:11:56.940Z,61.45
2017-04-26T01:15:47.839Z,64.47
2017-04-26T01:17:49.374Z,67.13
2017-04-26T01:20:13.631Z,67.03
2017-04-26T01:24:12.943Z,67.7
2017-04-26T01:26:44.943Z,68.75
2017-04-26T01:30:44.251Z,67.7
2017-04-26T01:33:15.214Z,66.66
2017-04-26T01:35:54.232Z,67.16
2017-04-26T01:38:17.561Z,66.85
2017-04-26T01:42:16.918Z,68.18
2017-04-26T01:44:47.836Z,68.56
2017-04-26T01:47:11.101Z,68.18
2017-04-26T01:49:34.716Z,69.32
2017-04-26T01:52:06.934Z,68.18
2017-04-26T01:54:38.081Z,69.04
2017-04-26T01:57:16.925Z,68.37
2017-04-26T01:59:54.979Z,69.6
2017-04-26T02:02:19.254Z,71.19
2017-04-26T02:06:18.472Z,69.51
2017-04-26T02:08:41.813Z,68.05
2017-04-26T02:11:07.005Z,69.23
2017-04-26T02:13:30.339Z,68.75
2017-04-26T02:16:08.623Z,69.13
2017-04-26T02:18:39.464Z,69.32
2017-04-26T02:22:38.301Z,69.6
2017-04-26T02:25:10.191Z,70.05
2017-04-26T02:27:35.500Z,71.19
2017-04-26T02:29:58.788Z,71.19
2017-04-26T02:33:58.922Z,71.95
2017-04-26T02:37:58.242Z,70.72
2017-04-26T02:40:38.193Z,71.28
2017-04-26T02:44:37.520Z,71.09
2017-04-26T02:47:08.514Z,71.28
2017-04-26T02:51:07.727Z,72.05
2017-04-26T02:55:07.565Z,72.9
2017-04-26T02:59:07.294Z,74.33
2017-04-26T03:03:06.700Z,74.33
2017-04-26T03:07:06.939Z,72.9
2017-04-26T03:09:46.221Z,72.81
2017-04-26T03:12:18.695Z,72.39
2017-04-26T03:16:18.684Z,71.19
2017-04-26T03:18:57.809Z,72.24
2017-04-26T03:21:21.259Z,72.77
2017-04-26T03:24:01.692Z,72.14
2017-04-26T03:26:03.405Z,71.67
2017-04-26T03:30:04.344Z,71.86
2017-04-26T03:32:27.650Z,71.47
2017-04-26T03:34:51.063Z,71.67
2017-04-26T03:37:15.518Z,70.9
2017-04-26T03:41:14.906Z,70.9
2017-04-26T03:43:52.831Z,71.38
2017-04-26T03:46:22.880Z,71.91
2017-04-26T03:50:23.141Z,71.72
2017-04-26T03:53:01.098Z,70.81
2017-04-26T03:55:40.208Z,69.19
2017-04-26T03:58:20.214Z,70.68
2017-04-26T04:00:38.797Z,69.73
2017-04-26T04:04:47.633Z,69.85
2017-04-26T04:08:46.988Z,67
2017-04-26T04:12:46.237Z,67.86
2017-04-26T04:15:16.330Z,68.24
2017-04-26T04:17:54.322Z,68.24
2017-04-26T04:21:53.730Z,67
2017-04-26T04:24:25.618Z,68.68
2017-04-26T04:26:51.047Z,69.48
2017-04-26T04:30:51.244Z,67.76
2017-04-26T04:33:01.448Z,67.63
2017-04-26T04:35:31.183Z,68.43
2017-04-26T04:38:09.496Z,66.97
2017-04-26T04:40:34.578Z,66.14
2017-04-26T04:42:59.139Z,65.67
2017-04-26T04:45:31.231Z,65.8
2017-04-26T04:48:02.393Z,65.48
2017-04-26T04:50:26.548Z,64.62
2017-04-26T04:52:51.901Z,66.18
2017-04-26T04:56:51.138Z,64.18
2017-04-26T04:59:21.127Z,63.51
2017-04-26T05:01:51.119Z,63.96
2017-04-26T05:05:51.570Z,65.03
2017-04-26T05:10:03.875Z,63.32
2017-04-26T05:12:27.716Z,63.8
2017-04-26T05:14:51.441Z,62.46
2017-04-26T05:17:21.505Z,63.07
2017-04-26T05:19:48.314Z,63.89
2017-04-26T05:22:19.063Z,64.31
2017-04-26T05:24:44.999Z,65.61
2017-04-26T05:27:09.643Z,64.97
2017-04-26T05:29:41.108Z,63.64
2017-04-26T05:32:07.640Z,63.26
2017-04-26T05:34:37.578Z,63.64
2017-04-26T05:37:02.109Z,62.88
2017-04-26T05:39:27.365Z,61.16
2017-04-26T05:41:51.690Z,59.95
2017-04-26T05:44:20.466Z,62.68
2017-04-26T05:46:43.860Z,60.05
2017-04-26T05:49:09.220Z,57.67
2017-04-26T05:51:33.619Z,58.52
2017-04-26T05:53:56.943Z,58.33
2017-04-26T05:56:20.322Z,58.69
2017-04-26T05:58:46.415Z,60.05
2017-04-26T06:01:26.771Z,63.1
2017-04-26T06:03:57.901Z,60.24
2017-04-26T06:06:28.009Z,61
2017-04-26T06:09:06.063Z,60.17
2017-04-26T06:11:36.447Z,57.72
2017-04-26T06:14:08.403Z,53.61
2017-04-26T06:18:09.079Z,54.25
2017-04-26T06:20:47.127Z,57.56
2017-04-26T06:23:13.805Z,58.14
2017-04-26T06:25:44.289Z,57.65
2017-04-26T06:28:22.819Z,57.18
2017-04-26T06:30:46.837Z,57.37
2017-04-26T06:34:28.870Z,59.25
2017-04-26T06:36:52.213Z,58.01
2017-04-26T06:39:16.032Z,58.61
2017-04-26T06:41:39.926Z,59.19
2017-04-26T06:44:04.279Z,58.9
2017-04-26T06:46:27.693Z,57.68
2017-04-26T06:48:58.088Z,57.68
2017-04-26T06:51:22.352Z,56.18
2017-04-26T06:53:45.839Z,56.18
2017-04-26T06:56:12.234Z,55.99
2017-04-26T07:02:49.618Z,50.48
2017-04-26T07:05:14.124Z,47.32
2017-04-26T07:07:37.508Z,47.42
2017-04-26T07:10:01.535Z,46.96
2017-04-26T07:12:40.470Z,49.95
2017-04-26T07:15:04.315Z,49.14
2017-04-26T07:17:31.259Z,46.51
2017-04-26T07:19:54.837Z,44.62
2017-04-26T07:24:09.259Z,42.07
2017-04-26T07:26:34.173Z,40.31
2017-04-26T07:32:24.957Z,35.95
2017-04-26T07:35:11.416Z,37.01
2017-04-26T07:37:38.257Z,34.81
2017-04-26T07:40:01.563Z,35.49
2017-04-26T07:42:30.384Z,34.35
2017-04-26T07:44:54.535Z,33.77
2017-04-26T07:47:21.747Z,33.58
2017-04-26T07:49:45.539Z,35.85
2017-04-26T07:52:12.674Z,36.01
2017-04-26T07:54:40.401Z,37.99
2017-04-26T07:57:06.601Z,39.33
2017-04-26T07:59:38.382Z,41.86
2017-04-26T08:02:02.340Z,45.53
2017-04-26T08:04:26.639Z,47.87
2017-04-26T08:07:05.803Z,46.72
2017-04-26T08:09:37.965Z,49.38
2017-04-26T08:12:01.761Z,49.54
2017-04-26T08:14:41.633Z,49.8
2017-04-26T08:19:43.479Z,50.95
2017-04-26T08:22:07.072Z,51.33
2017-04-26T08:24:46.357Z,53.21
2017-04-26T08:27:09.982Z,53.05
2017-04-26T08:29:36.173Z,52.12
2017-04-26T08:32:02.023Z,53.33
2017-04-26T08:34:41.780Z,53.24
2017-04-26T08:37:06.301Z,53.5
2017-04-26T08:39:36.772Z,53.31
2017-04-26T08:42:16.294Z,53.88
2017-04-26T08:44:40.592Z,55.66
2017-04-26T08:47:04.720Z,54.83
2017-04-26T08:49:28.513Z,54.48
2017-04-26T08:51:42.425Z,56.04
2017-04-26T08:55:35.395Z,54.03
2017-04-26T08:57:59.161Z,51.86
2017-04-26T09:00:29.177Z,50.81
2017-04-26T09:02:54.212Z,49.49
2017-04-26T09:05:23.192Z,49.14
2017-04-26T09:10:59.468Z,42.03
2017-04-26T09:13:30.332Z,41.65
2017-04-26T09:15:59.699Z,41.27
2017-04-26T09:18:39.376Z,40.86
2017-04-26T09:22:40.282Z,40.52
2017-04-26T09:25:04.054Z,39.2
2017-04-26T09:29:21.256Z,40.69
2017-04-26T09:31:45.806Z,40.94
2017-04-26T09:38:01.753Z,41.22
2017-04-26T09:40:28.008Z,41.94
2017-04-26T09:42:51.996Z,41.58
2017-04-26T09:45:24.577Z,42.08
2017-04-26T09:47:59.000Z,44.07
2017-04-26T09:50:23.903Z,44.34
2017-04-26T09:53:02.522Z,44.17
2017-04-26T09:55:26.376Z,42.83
2017-04-26T09:57:50.735Z,43.29
2017-04-26T10:00:33.386Z,43.23
2017-04-26T10:03:03.881Z,42.9
2017-04-26T10:05:36.646Z,41.82
2017-04-26T10:08:00.808Z,41.7
2017-04-26T10:10:26.116Z,40.55
2017-04-26T10:12:56.559Z,39.16
2017-04-26T10:15:26.606Z,36.42
2017-04-26T10:17:55.354Z,35.1
2017-04-26T10:20:20.316Z,37.05
2017-04-26T10:22:59.131Z,35.55
2017-04-26T10:25:24.155Z,36.22
2017-04-26T10:27:48.086Z,38.83
2017-04-26T10:31:20.298Z,40.25
2017-04-26T10:35:34.989Z,37.99
2017-04-26T10:39:26.960Z,38.64
2017-04-26T10:41:52.653Z,37.99
2017-04-26T10:44:16.392Z,39.79
2017-04-26T10:46:40.467Z,39.89
2017-04-26T10:49:05.013Z,39.04
2017-04-26T10:51:30.077Z,37.82
2017-04-26T10:53:54.328Z,38.39
2017-04-26T10:56:18.728Z,35.1
2017-04-26T10:58:43.620Z,34.61
2017-04-26T11:01:07.560Z,34.34
2017-04-26T11:03:33.321Z,32.33
2017-04-26T11:05:57.283Z,30.81
2017-04-26T11:08:21.261Z,31.64
2017-04-26T11:10:45.162Z,32.86
2017-04-26T11:13:09.983Z,31.27
2017-04-26T11:15:35.519Z,31.08
2017-04-26T11:18:11.367Z,30.04
2017-04-26T11:20:39.466Z,30.74
2017-04-26T11:23:07.925Z,30.36
2017-04-26T11:25:32.334Z,33
2017-04-26T11:27:57.603Z,33.08
2017-04-26T11:30:25.889Z,33
2017-04-26T11:32:50.196Z,34.87
2017-04-26T11:35:14.965Z,35.41
2017-04-26T11:38:20.186Z,36.96
2017-04-26T11:40:44.361Z,36.69
2017-04-26T11:43:09.325Z,36.02
2017-04-26T11:45:24.760Z,37.04
2017-04-26T11:47:49.617Z,35.61
2017-04-26T11:50:22.898Z,34.29
2017-04-26T11:52:46.742Z,33.64
2017-04-26T11:55:10.813Z,35.55
2017-04-26T11:57:34.549Z,33.75
2017-04-26T12:00:06.404Z,33.81
2017-04-26T12:02:31.124Z,33.77
2017-04-26T12:05:02.080Z,34.1
2017-04-26T12:10:41.888Z,35.98
2017-04-26T12:13:05.914Z,35.41
2017-04-26T12:15:30.440Z,35.42
2017-04-26T12:17:55.280Z,35.12
2017-04-26T12:20:19.087Z,33.86
2017-04-26T12:22:44.950Z,34.93
2017-04-26T12:25:09.079Z,33.49
2017-04-26T12:27:33.855Z,32.63
2017-04-26T12:29:57.906Z,33.87
2017-04-26T12:32:22.001Z,33.32
2017-04-26T12:34:46.386Z,33.7
2017-04-26T12:37:30.697Z,31.71
2017-04-26T12:39:54.309Z,31.9
2017-04-26T12:42:18.739Z,32.2
2017-04-26T12:44:43.403Z,33.97
2017-04-26T12:47:14.917Z,33.2
2017-04-26T12:49:39.927Z,35.57
2017-04-26T12:52:06.264Z,33.95
2017-04-26T12:54:30.340Z,35.18
2017-04-26T12:56:55.161Z,34.53
2017-04-26T12:59:26.075Z,33.59
2017-04-26T13:03:06.376Z,33.28
2017-04-26T13:05:33.560Z,33.48
2017-04-26T13:07:58.525Z,34.14
2017-04-26T13:10:32.082Z,34.05
2017-04-26T13:12:56.225Z,34.72
2017-04-26T13:15:21.974Z,34.81
2017-04-26T13:17:45.721Z,34.72
2017-04-26T13:21:47.580Z,34.99
2017-04-26T13:24:11.394Z,36.69
2017-04-26T13:26:37.149Z,36.71
2017-04-26T13:29:01.338Z,37.53
2017-04-26T13:31:25.841Z,39.25
2017-04-26T13:33:49.582Z,38.98
2017-04-26T13:36:13.269Z,38.51
2017-04-26T13:38:39.342Z,38.39
2017-04-26T13:41:03.200Z,37.55
2017-04-26T13:43:27.097Z,37.09
2017-04-26T13:45:57.652Z,37.84
2017-04-26T13:48:21.373Z,38.66
2017-04-26T13:55:09.384Z,40.59
2017-04-26T13:57:33.218Z,41.14
2017-04-26T13:59:56.818Z,40.2
2017-04-26T14:02:20.649Z,40.2
2017-04-26T14:04:44.134Z,39.35
2017-04-26T14:07:08.823Z,38.22
2017-04-26T14:09:32.382Z,38.51
2017-04-26T14:11:59.524Z,37.95
2017-04-26T14:14:38.043Z,37.76
2017-04-26T14:17:01.695Z,37.57
2017-04-26T14:19:25.437Z,37.48
2017-04-26T14:21:52.128Z,37.95
2017-04-26T14:24:16.607Z,36.94
2017-04-26T14:26:40.827Z,37.48
2017-04-26T14:29:04.507Z,37.85
2017-04-26T14:31:28.125Z,36.44
2017-04-26T14:33:51.847Z,35.96
2017-04-26T14:36:15.575Z,34.45
2017-04-26T14:38:45.974Z,34.55
2017-04-26T14:41:11.577Z,32.87
2017-04-26T14:43:36.188Z,33.04
2017-04-26T14:45:59.999Z,33.89
2017-04-26T14:48:38.532Z,35.77
2017-04-26T14:51:02.272Z,36.8
2017-04-26T14:53:31.634Z,35.58
2017-04-26T14:55:59.192Z,35.98
2017-04-26T14:58:24.127Z,36.06
2017-04-26T15:00:47.869Z,35.6
2017-04-26T15:03:26.479Z,34.55
2017-04-26T15:05:31.324Z,35.68
2017-04-26T15:07:55.243Z,36.08
2017-04-26T15:11:56.592Z,37.57
2017-04-26T15:17:50.509Z,40.61
2017-04-26T15:20:24.094Z,38.07
2017-04-26T15:22:48.814Z,37.88
2017-04-26T15:25:13.471Z,37.49
2017-04-26T15:27:37.997Z,37.76
2017-04-26T15:30:01.798Z,37.76
2017-04-26T15:32:41.303Z,36.44
2017-04-26T15:35:06.448Z,35.88
2017-04-26T15:37:29.644Z,35.5
2017-04-26T15:39:57.200Z,35.68
2017-04-26T15:42:20.817Z,36.52
2017-04-26T15:44:44.325Z,37.57
2017-04-26T15:47:07.898Z,37.85
2017-04-26T15:49:38.337Z,40.13
2017-04-26T15:52:01.940Z,39.67
2017-04-26T15:54:25.619Z,38.71
2017-04-26T15:56:50.210Z,39.77
2017-04-26T15:59:07.354Z,40.53
2017-04-26T16:01:21.132Z,41.78
2017-04-26T16:03:44.791Z,41.75
2017-04-26T16:06:09.441Z,42.52
2017-04-26T16:08:33.297Z,41.75
2017-04-26T16:10:57.188Z,42.14
2017-04-26T16:13:20.823Z,41.75
2017-04-26T16:15:45.679Z,40.92
2017-04-26T16:19:45.541Z,40.17
2017-04-26T16:22:19.880Z,40.17
2017-04-26T16:24:59.287Z,39.31
2017-04-26T16:27:30.947Z,38.54
2017-04-26T16:30:02.324Z,38.66
2017-04-26T16:32:26.866Z,39.9
2017-04-26T16:34:51.465Z,39.4
2017-04-26T16:37:14.975Z,40.17
2017-04-26T16:39:26.008Z,41.28
2017-04-26T16:41:57.609Z,42.69
2017-04-26T16:44:21.157Z,42.4
2017-04-26T16:46:22.853Z,44.2
2017-04-26T16:48:46.497Z,44.02
2017-04-26T16:51:10.085Z,42.81
2017-04-26T16:53:48.330Z,41.78
2017-04-26T16:56:11.872Z,41.78
2017-04-26T16:58:35.418Z,42.79
2017-04-26T17:00:58.983Z,44.05
2017-04-26T17:03:22.589Z,43.74
2017-04-26T17:05:47.104Z,43.84
2017-04-26T17:08:02.223Z,44.2
2017-04-26T17:10:26.040Z,44.96
2017-04-26T17:12:49.744Z,46.01
2017-04-26T17:15:13.293Z,46.37
2017-04-26T17:17:38.399Z,45.92
2017-04-26T17:20:09.839Z,45.43
2017-04-26T17:22:34.807Z,45.63
2017-04-26T17:24:58.282Z,46.37
2017-04-26T17:27:21.734Z,46.56
2017-04-26T17:29:45.242Z,48.16
2017-04-26T17:32:10.956Z,48.07
2017-04-26T17:34:36.875Z,48.92
2017-04-26T17:37:01.294Z,48.83
2017-04-26T17:39:24.814Z,49.21
2017-04-26T17:41:48.265Z,49.11
2017-04-26T17:45:03.521Z,49.78
2017-04-26T17:47:30.511Z,50.04
2017-04-26T17:49:53.869Z,49.95
2017-04-26T17:52:17.321Z,49.11
2017-04-26T17:54:32.435Z,51.09
2017-04-26T17:56:55.806Z,50.9
2017-04-26T17:59:19.151Z,50.61
2017-04-26T18:01:42.590Z,50.63
2017-04-26T18:04:08.148Z,50.71
2017-04-26T18:06:33.527Z,50.54
2017-04-26T18:08:57.648Z,49.59
2017-04-26T18:11:20.983Z,50.13
2017-04-26T18:13:44.452Z,50.04
2017-04-26T18:16:07.857Z,50.04
2017-04-26T18:18:31.364Z,49.4
2017-04-26T18:20:54.750Z,49.66
2017-04-26T18:23:20.610Z,49.21
2017-04-26T18:27:20.922Z,49.76
2017-04-26T18:29:44.293Z,49.97
2017-04-26T18:32:23.509Z,50.9
2017-04-26T18:37:59.732Z,53.47
2017-04-26T18:40:30.475Z,53.56
2017-04-26T18:44:30.102Z,53.31
2017-04-26T18:46:54.464Z,53.12
2017-04-26T18:50:53.961Z,53.85
2017-04-26T18:53:25.335Z,53.5
2017-04-26T18:55:55.628Z,55.28
2017-04-26T18:58:38.880Z,55.28
2017-04-26T19:01:04.975Z,55.66
2017-04-26T19:03:28.876Z,56.49
2017-04-26T19:05:55.267Z,55.19
2017-04-26T19:10:00.377Z,54.52
2017-04-26T19:12:53.837Z,54.24
2017-04-26T19:15:24.480Z,53.69
2017-04-26T19:17:48.952Z,53.12
2017-04-26T19:20:12.438Z,54.61
2017-04-26T19:22:38.016Z,54.52
2017-04-26T19:25:03.611Z,53.88
2017-04-26T19:30:22.558Z,51.59
2017-04-26T19:33:10.956Z,51.78
2017-04-26T19:35:38.303Z,48.44
